• Join FlightAware (Why Join?)
  • Login
  • US Flag 
12:47PM EDT


 

Airport Tracker/Info


-or-


 

Live Flight TrackerFlight Track Log ✈ N3640J ✈ 25-Jul-2013 ✈ KLAL - KLZU

Flight Track Log - Related Links

Times and Time Zones

All times are in EDT time to prevent confusion due to time zone crossing. See the N3640J flight status page for this flight to view local times or setup timezone preferences in your user account.

Time Position Orientation Groundspeed Altitude Reporting Facility
EDT Latitude Longitude Course Direction KTS MPH feet Rate Location/Type
02:52PM 28.1833 -82.3833 345° North 142 163 2,200  Level Tampa TRACON
02:53PM 28.2167 -82.3833 360° North 134 154 3,200 900 Climbing Tampa TRACON
02:54PM 28.2500 -82.4000 336° Northwest 128 147 4,000 360 Climbing Tampa TRACON
02:55PM 28.3000 -82.4167 344° North 153 176 4,000  Level Tampa TRACON
02:56PM 28.3333 -82.4333 336° Northwest 152 175 4,100 600 Climbing Tampa TRACON
02:57PM 28.2255 -82.0908 345° North  Level Estimated
02:57PM 28.3667 -82.4333 360° North 117 135 5,400  Level Tampa TRACON
02:58PM 28.4000 -82.4500 336° Northwest 146 168 5,500 600 Climbing Tampa TRACON
02:59PM 28.4500 -82.4500 360° North 136 157 6,500 420 Climbing Tampa TRACON
03:00PM 28.4833 -82.4667 336° Northwest 145 167 6,500  Level Tampa TRACON
03:01PM 28.5167 -82.4833 336° Northwest 150 173 6,500  Level Tampa TRACON
03:02PM 28.5667 -82.4833 360° North 148 170 6,500 -60 Level Tampa TRACON
03:03PM 28.6064 -82.5000 340° North 147 169 6,400 -60 Descending Jacksonville Center
03:04PM 28.6461 -82.5094 348° North 150 173 6,400  Level Jacksonville Center
03:05PM 28.6836 -82.5211 345° North 148 170 6,400  Level Jacksonville Center
03:06PM 28.7253 -82.5328 346° North 150 173 6,400  Level Jacksonville Center
03:07PM 28.7733 -82.5444 348° North 149 171 6,400  Level Jacksonville Center
03:08PM 28.8131 -82.5536 349° North 148 170 6,400  Level Jacksonville Center
03:09PM 28.8508 -82.5631 348° North 152 175 6,400  Level Jacksonville Center
03:10PM 28.8944 -82.5772 344° North 155 178 6,400  Level Jacksonville Center
03:11PM 28.9322 -82.5867 348° North 157 181 6,400  Level Jacksonville Center
03:12PM 28.9781 -82.5983 347° North 156 180 6,400  Level Jacksonville Center
03:13PM 29.0261 -82.6075 351° North 155 178 6,400  Level Jacksonville Center
03:14PM 29.0700 -82.6194 347° North 154 177 6,400  Level Jacksonville Center
03:15PM 29.1117 -82.6311 346° North 154 177 6,400  Level Jacksonville Center
03:16PM 29.1536 -82.6428 346° North 156 180 6,400  Level Jacksonville Center
03:17PM 29.1953 -82.6522 349° North 154 177 6,400  Level Jacksonville Center
03:18PM 29.2414 -82.6736 338° Northwest 156 180 6,400  Level Jacksonville Center
03:19PM 29.2831 -82.6975 333° Northwest 151 174 6,400  Level Jacksonville Center
03:20PM 29.3206 -82.7139 339° North 151 174 6,400  Level Jacksonville Center
03:21PM 29.3478 -82.7211 347° North 156 180 6,400  Level Jacksonville Center
03:22PM 29.3875 -82.7306 348° North 157 181 6,400  Level Jacksonville Center
03:23PM 29.4314 -82.7400 349° North 157 181 6,500  Climbing Jacksonville Center
03:24PM 29.4731 -82.7519 346° North 157 181 6,500 -120 Level Jacksonville Center
03:24PM 29.4939 -82.7589 344° North 155 178 6,400  Descending Jacksonville Center
03:25PM 29.5147 -82.7614 354° North 157 181 6,500  Climbing Jacksonville Center
03:25PM 29.5358 -82.7683 344° North 154 177 6,400 -60 Descending Jacksonville Center
03:27PM 29.5983 -82.7828 349° North 158 182 6,400  Level Jacksonville Center
03:28PM 29.6403 -82.7922 349° North 158 182 6,400  Level Jacksonville Center
03:29PM 29.6839 -82.7731 21° North 158 182 6,400  Level Jacksonville Center
03:30PM 29.7236 -82.7753 357° North 158 182 6,400  Level Jacksonville Center
03:31PM 29.7653 -82.7872 346° North 153 176 6,500  Climbing Jacksonville Center
03:32PM 29.8072 -82.7992 346° North 153 176 6,500  Level Jacksonville Center
03:33PM 29.8511 -82.8089 349° North 153 176 6,500  Level Jacksonville Center
03:34PM 29.8886 -82.8206 345° North 153 176 6,500  Level Jacksonville Center
03:35PM 29.9303 -82.8303 349° North 153 176 6,500  Level Jacksonville Center
03:36PM 29.9722 -82.8397 349° North 153 176 6,500  Level Jacksonville Center
03:37PM 30.0139 -82.8517 346° North 148 170 6,500 -60 Level Jacksonville Center
03:38PM 30.0556 -82.8639 346° North 148 170 6,400  Descending Jacksonville Center
03:39PM 30.0975 -82.8758 346° North 148 170 6,500  Climbing Jacksonville Center
03:40PM 30.1392 -82.8853 349° North 148 170 6,500  Level Jacksonville Center
03:41PM 30.1789 -82.8972 345° North 148 170 6,500  Level Jacksonville Center
03:42PM 30.2206 -82.9069 349° North 148 170 6,500  Level Jacksonville Center
03:43PM 30.2622 -82.9192 346° North 148 170 6,500  Level Jacksonville Center
03:44PM 30.3042 -82.9311 346° North 148 170 6,500  Level Jacksonville Center
03:45PM 30.3458 -82.9408 349° North 148 170 6,500 600 Level Jacksonville Center
03:46PM 30.3772 -82.9553 338° Northwest 142 163 7,700 900 Climbing Jacksonville Center
03:47PM 30.3981 -82.9719 325° Northwest 115 132 8,300 300 Climbing Jacksonville Center
03:48PM 30.4294 -83.0033 319° Northwest 114 131 8,400 60 Climbing Jacksonville Center
03:49PM 30.4628 -83.0347 321° Northwest 140 161 8,500  Climbing Jacksonville Center
03:50PM 30.5025 -83.0419 351° North 140 161 8,500 -60 Level Jacksonville Center
03:51PM 30.5442 -83.0542 346° North 145 167 8,400  Descending Jacksonville Center
03:52PM 30.5881 -83.0639 349° North 151 174 8,500  Climbing Jacksonville Center
03:53PM 30.6256 -83.0808 339° North 151 174 8,400 -120 Descending Jacksonville Center
03:53PM 30.6483 -83.0978 327° Northwest 153 176 8,400  Level Jacksonville Center
03:54PM 30.6653 -83.1050 340° North 151 174 8,400 60 Level Jacksonville Center
03:55PM 30.7028 -83.1244 336° Northwest 151 174 8,500  Climbing Jacksonville Center
03:56PM 30.7611 -83.1608 332° Northwest 155 178 8,500  Level Jacksonville Center
03:57PM 30.8008 -83.1756 342° North 155 178 8,500 -60 Level Jacksonville Center
03:58PM 30.8425 -83.1925 341° North 155 178 8,400  Descending Jacksonville Center
03:59PM 30.8861 -83.2122 339° North 153 176 8,500  Climbing Jacksonville Center
04:00PM 30.9258 -83.2292 340° North 154 177 8,500  Level Jacksonville Center
04:01PM 30.9633 -83.2389 347° North 157 181 8,500  Level Jacksonville Center
04:02PM 31.0114 -83.2464 352° North 154 177 8,500  Level Jacksonville Center
04:03PM 31.0511 -83.2564 348° North 152 175 8,500  Level Jacksonville Center
04:04PM 31.0969 -83.2661 350° North 155 178 8,500  Level Jacksonville Center
04:05PM 31.1386 -83.2761 348° North 155 178 8,500  Level Jacksonville Center
04:06PM 31.1806 -83.2883 346° North 156 180 8,500  Level Jacksonville Center
04:07PM 31.2264 -83.2958 352° North 157 181 8,500  Level Jacksonville Center
04:08PM 31.2681 -83.3033 351° North 155 178 8,500  Level Jacksonville Center
04:09PM 31.3119 -83.3156 347° North 157 181 8,500  Level Jacksonville Center
04:10PM 31.3514 -83.3281 345° North 156 180 8,500  Level Jacksonville Center
04:11PM 31.3975 -83.3381 350° North 157 181 8,500 -60 Level Jacksonville Center
04:12PM 31.4392 -83.3456 351° North 157 181 8,400  Descending Jacksonville Center
04:14PM 31.4892 -83.3581 348° North 159 183 8,500  Climbing Jacksonville Center
04:15PM 31.5350 -83.3703 347° North 158 182 8,400  Descending Jacksonville Center
04:16PM 31.5728 -83.3778 350° North 156 180 8,500  Climbing Jacksonville Center
04:17PM 31.6186 -83.3903 347° North 156 180 8,500  Level Jacksonville Center
04:18PM 31.6603 -83.4003 348° North 157 181 8,500  Level Jacksonville Center
04:19PM 31.7019 -83.4053 354° North 165 190 8,500  Level Jacksonville Center
04:20PM 31.7436 -83.4153 348° North 159 183 8,500  Level Jacksonville Center
04:21PM 31.7875 -83.4253 349° North 159 183 8,500  Level Jacksonville Center
04:22PM 31.8292 -83.4353 348° North 159 183 8,500  Level Jacksonville Center
04:23PM 31.8708 -83.4481 345° North 159 183 8,500  Level Jacksonville Center
04:25PM 31.9667 -83.4667 351° North 158 182 8,500  Level Atlanta TRACON
04:26PM 32.0000 -83.4833 337° Northwest 157 181 8,500  Level Atlanta TRACON
04:27PM 32.0500 -83.4833 360° North 154 177 8,500  Level Atlanta TRACON
04:28PM 32.0833 -83.5000 337° Northwest 154 177 8,500  Level Atlanta TRACON
04:29PM 32.1333 -83.5167 344° North 154 177 8,500  Level Atlanta TRACON
04:30PM 32.1667 -83.5167 360° North 154 177 8,500  Level Atlanta TRACON
04:31PM 32.2167 -83.5333 344° North 152 175 8,500  Level Atlanta TRACON
04:32PM 32.2500 -83.5333 360° North 154 177 8,500  Level Atlanta TRACON
04:33PM 32.3000 -83.5500 344° North 151 174 8,500  Level Atlanta TRACON
04:34PM 32.3333 -83.5333 23° Northeast 156 180 8,500  Level Atlanta TRACON
04:35PM 32.3833 -83.5500 344° North 157 181 8,500  Level Atlanta TRACON
04:36PM 32.4167 -83.5500 360° North 158 182 8,500  Level Atlanta TRACON
04:37PM 32.4667 -83.5667 344° North 160 184 8,500  Level Atlanta TRACON
04:38PM 32.5167 -83.5667 360° North 161 185 8,500  Level Atlanta TRACON
04:39PM 32.5500 -83.5833 337° Northwest 157 181 8,500  Level Atlanta TRACON
04:40PM 32.6000 -83.5833 360° North 153 176 8,500  Level Atlanta TRACON
04:41PM 32.6500 -83.5833 360° North 157 181 8,500  Level Atlanta TRACON
04:42PM 32.6833 -83.5833 360° North 160 184 8,500  Level Atlanta TRACON
04:43PM 32.7333 -83.5833 360° North 163 188 8,500  Level Atlanta TRACON
04:44PM 32.7667 -83.5833 360° North 161 185 8,500  Level Atlanta TRACON
04:45PM 32.8167 -83.6000 344° North 157 181 8,500  Level Atlanta TRACON
04:46PM 32.8500 -83.6167 337° Northwest 156 180 8,500  Level Atlanta TRACON
04:47PM 32.9000 -83.6167 360° North 156 180 8,500  Level Atlanta TRACON
04:48PM 32.9333 -83.6333 337° Northwest 157 181 8,500  Level Atlanta TRACON
04:49PM 32.9833 -83.6500 344° North 138 159 8,500  Level Atlanta TRACON
04:50PM 33.0333 -83.6667 344° North 167 192 8,500  Level Atlanta TRACON
04:51PM 33.0667 -83.6667 360° North 162 186 8,500 -60 Level Atlanta TRACON
04:52PM 33.1167 -83.6833 344° North 157 181 8,400 -60 Descending Atlanta TRACON
04:53PM 33.1500 -83.7000 337° Northwest 161 185 8,400  Level Atlanta TRACON
04:54PM 33.2000 -83.7167 344° North 159 183 8,400 -360 Level Atlanta TRACON
04:55PM 33.2333 -83.7333 337° Northwest 161 185 7,700 -1,680 Descending Atlanta TRACON
04:56PM 33.3000 -83.7333 360° North 188 216 5,100 -2,340 Descending Atlanta TRACON
04:57PM 33.3333 -83.7500 337° Northwest 184 212 3,100 -1,440 Descending Atlanta TRACON
04:58PM 33.3833 -83.7667 344° North 163 188 2,400 -300 Descending Atlanta TRACON
04:59PM 33.4167 -83.7833 337° Northwest 147 169 2,500  Climbing Atlanta TRACON
05:00PM 33.4500 -83.8000 337° Northwest 147 169 2,500  Level Atlanta TRACON
05:01PM 33.5000 -83.8000 360° North 151 174 2,500 -60 Level Atlanta TRACON
05:03PM 33.5833 -83.8333 342° North 152 175 2,400 -60 Descending Atlanta TRACON
05:04PM 33.6167 -83.8500 337° Northwest 159 183 2,400  Level Atlanta TRACON
05:05PM 33.6667 -83.8500 360° North 156 180 2,500  Climbing Atlanta TRACON
05:06PM 33.7000 -83.8667 337° Northwest 158 182 2,500 -60 Level Atlanta TRACON
05:07PM 33.7500 -83.8833 345° North 157 181 2,400 -60 Descending Atlanta TRACON
05:08PM 33.7833 -83.9000 337° Northwest 153 176 2,400  Level Atlanta TRACON
05:09PM 33.8333 -83.9167 345° North 156 180 2,400  Level Atlanta TRACON
05:10PM 33.8667 -83.9333 337° Northwest 126 145 2,400  Level Atlanta TRACON
05:11PM 33.9000 -83.9500 337° Northwest 133 153 2,400 -120 Level Atlanta TRACON
05:12PM 33.9167 -83.9833 301° West 116 133 2,200 -300 Descending Atlanta TRACON
05:13PM 33.9500 -83.9833 360° North 83 96 1,900 -300 Descending Atlanta TRACON
05:15PM 33.9667 -83.9500 North  Level FlightAware Approximate
05:22PM 33.9781 -83.9624 North  Level Estimated
05:23PM 33.9781 -83.9624 North  Level Estimated